Weather observations for the past three days for
Chesapeake, Chesapeake Municipal Airport
Metric (Imperial)
Date Time (edt) Wind (kph) Vis. (km) Weather Sky Cond. Temperature (ºC) Relative Humidity Wind Chill (°C) Heat Index (°C) Pressure Precipitation (cm)
Air Dwpt 6 hour altimeter (cm) sea level (mb) 1 hr 3 hr 6 hr
Max. Min.
04 19:15 S 26 G 41 16.09 Fair CLR 21.3 9.5 47% 76.02 0.0
04 18:55 S 17 G 31 16.09 Fair CLR 22.3 8.7 42% 76.02 0.0
04 18:35 SW 15 G 28 16.09 Fair CLR 24 4.1 28% 25 76 0.0
04 18:15 SW 22 G 31 16.09 Fair CLR 24.3 4.9 29% 25 76 0.0
04 17:55 S 13 16.09 Fair CLR 24.6 4.7 28% 25 76 0.0
04 17:35 SW 20 G 33 16.09 Fair CLR 24.8 5.2 28% 25 76.02 0.0
04 17:15 SW 20 G 35 16.09 Fair CLR 24.8 5 28% 25 76.02 0.0
04 16:55 SW 15 G 30 16.09 Partly Cloudy SCT080 25 4.6 27% 25 76.02 0.0
04 16:35 S 20 G 31 16.09 Partly Cloudy SCT080 24.8 5.4 29% 25 76.02 0.0
04 16:15 S 19 G 35 16.09 Partly Cloudy SCT075 25 4.6 27% 25 76.02 0.0
04 15:55 SW 9 G 31 16.09 Partly Cloudy SCT075 25 5.3 28% 25 76.02 0.0
04 15:35 S 26 G 33 16.09 Partly Cloudy SCT075 25.2 4.5 26% 25 76.05 0.0
04 15:15 W 17 G 28 16.09 Partly Cloudy SCT075 24.4 5 29% 25 76.07 0.0
04 14:55 SW 11 G 28 16.09 Fair CLR 24.5 4.8 28% 25 76.1 0.0
04 14:35 SW 17 G 37 16.09 Fair CLR 24.2 4.7 28% 25 76.12 0.0
04 14:15 SW 11 G 28 16.09 Partly Cloudy SCT065 24.1 5.5 30% 25 76.15 0.0
04 13:55 SW 20 G 35 16.09 Partly Cloudy SCT065 23.6 5.8 23.8 11.1 32% 76.15 0.0
04 13:35 W 13 G 28 16.09 Fair CLR 23.3 6.5 34% 76.17 0.0
04 13:15 SW 17 G 28 16.09 Fair CLR 23.4 6.5 34% 76.17 0.0
04 12:55 SW 13 16.09 Fair CLR 22.5 6.8 36% 76.2 0.0
04 12:35 W 19 G 26 16.09 Fair CLR 22.5 6.1 35% 76.2 0.0
04 12:15 W 15 G 28 16.09 Fair CLR 22.1 5.9 35% 76.23 0.0
04 11:55 SW 15 G 33 16.09 Fair CLR 21.6 7 39% 76.25 0.0
04 11:35 SW 17 16.09 Fair CLR 20.9 7.5 42% 76.25 0.0
04 11:15 S 19 16.09 Fair CLR 21 7.7 42% 76.28 0.0
04 10:55 SW 17 16.09 Fair CLR 20.1 8.1 46% 76.28 0.0
04 10:35 SW 11 16.09 Fair CLR 19.3 7.9 48% 76.28 0.0
04 10:15 SW 11 16.09 Fair CLR 18.2 8.3 53% 76.3 0.0
04 09:55 SW 13 16.09 Fair CLR 17.5 8.5 56% 76.3 0.0
04 09:35 SW 15 16.09 Fair CLR 16.1 8.4 61% 76.3 0.0
04 09:15 SW 11 16.09 Fair CLR 15.6 8.7 64% 76.33 0.0
04 08:55 SW 15 16.09 Fair CLR 14.2 8.3 68% 76.35 0.0
04 08:35 SW 9 16.09 Fair CLR 13.2 8.5 73% 76.35 0.0
04 08:15 S 9 16.09 Fair CLR 11.5 8.1 80% 76.33 0.0
04 07:55 S 9 16.09 Fair CLR 11.1 8.1 11.1 5 82% 76.35 0.0
04 07:35 S 7 16.09 Fair CLR 10.1 7.9 86% 76.35 0.0
04 07:15 S 6 16.09 Partly Cloudy SCT110 9.1 7.5 90% 76.35 0.0
04 06:55 SW 6 16.09 Mostly Cloudy BKN120 7.7 6.8 94% 76.35 0.0
04 06:35 Calm 16.09 Partly Cloudy SCT120 6.9 6.2 95% 76.33 0.0
04 06:15 Calm 16.09 Partly Cloudy SCT120 6.6 5.6 93% 76.35 0.0
04 05:55 Calm 16.09 Partly Cloudy SCT120 6.6 5.7 94% 76.35 0.0
04 05:35 Calm 16.09 Fair CLR 6.7 5.7 93% 76.35 0.0
04 05:15 Calm 16.09 Fair CLR 6.9 5.9 93% 76.35 0.0
04 04:55 Calm 16.09 Partly Cloudy SCT120 6.6 5.6 93% 76.38 0.0
04 04:35 Calm 16.09 Mostly Cloudy BKN120 6.4 5.4 93% 76.38 0.0
04 04:15 Calm 16.09 Partly Cloudy SCT120 6.3 5.1 92% 76.38 0.0
04 03:55 Calm 16.09 Partly Cloudy SCT120 7 5.7 92% 76.38 0.0
04 03:35 Calm 16.09 Partly Cloudy SCT120 6.8 5.6 92% 76.38 0.0
04 03:15 Calm 16.09 Partly Cloudy SCT120 6 4.8 92% 76.38 0.0
04 02:55 Calm 16.09 Fair CLR 5.8 4.7 93% 76.38 0.0
04 02:35 Calm 16.09 Fair CLR 5.1 4.2 94% 76.4 0.0
04 02:15 Calm 16.09 Fair CLR 5.5 4.6 94% 76.4 0.0
04 01:55 Calm 16.09 Fair CLR 6 4.8 12.8 6 92% 76.4 0.0
04 01:35 Calm 16.09 Fair CLR 6 4.9 93% 76.4 0.0
04 01:15 Calm 16.09 Fair CLR 6.7 5 89% 76.4 0.0
04 00:55 Calm 16.09 Fair CLR 7.2 5.1 87% 76.4 0.0
04 00:35 Calm 16.09 Fair CLR 7.7 5.1 84% 76.43 0.0
04 00:15 Calm 16.09 Fair CLR 8 5 82% 76.4 0.0
03 23:55 SE 7 16.09 Fair CLR 8 4.7 80% 7 76.4 0.0
03 23:35 Calm 16.09 Fair CLR 8 4.3 78% 76.4 0.0
03 23:15 Calm 16.09 Fair CLR 8 4.1 77% 76.4 0.0
03 22:55 SE 6 16.09 Fair CLR 8.1 3.9 75% 76.4 0.0
03 22:35 SE 6 16.09 Fair CLR 8 3.4 73% 76.43 0.0
03 22:15 Calm 16.09 Fair CLR 8.2 3.5 73% 76.43 0.0
03 21:55 SE 6 16.09 Fair CLR 8.4 3.4 71% 76.4 0.0
03 21:35 Calm 16.09 Fair CLR 9 3.1 67% 76.38 0.0
03 21:15 SE 6 16.09 Fair CLR 8.6 3.1 69% 76.35 0.0
03 20:55 Calm 16.09 Fair CLR 8.8 4.9 77% 76.33 0.0
03 20:35 Calm 16.09 Fair CLR 9.7 4.5 70% 76.3 0.0
03 20:15 Calm 16.09 Fair CLR 11.2 3.6 60% 76.28 0.0
03 19:55 Calm 16.09 Fair CLR 13 1.6 17.6 13 46% 76.25 0.0
03 19:35 Calm 16.09 Fair CLR 15.8 -1.4 31% 76.23 0.0
03 19:15 NW 6 16.09 Fair CLR 16.4 -2.8 27% 76.23 0.0
03 18:55 NW 6 16.09 Fair CLR 16.7 -3.6 25% 76.23 0.0
03 18:35 W 9 16.09 Fair CLR 17.1 -3.7 24% 76.23 0.0
03 18:15 W 7 16.09 Fair CLR 17.2 -4.5 22% 76.23 0.0
03 17:55 W 15 16.09 Fair CLR 17.3 -5.4 21% 76.23 0.0
03 17:35 W 13 16.09 Fair CLR 17.6 -5 21% 76.23 0.0
03 17:15 W 11 16.09 Fair CLR 17.4 -5.1 21% 76.23 0.0
03 16:55 W 9 16.09 Fair CLR 17.1 -5.7 21% 76.23 0.0
03 16:35 W 19 16.09 Fair CLR 17.1 -4.1 23% 76.23 0.0
03 16:15 W 11 G 26 16.09 Fair CLR 16.7 -3.8 24% 76.23 0.0
03 15:55 W 13 16.09 Fair CLR 17.1 -3.3 25% 76.25 0.0
03 15:35 W 13 16.09 Fair CLR 17.3 -2.8 25% 76.25 0.0
03 15:15 W 13 16.09 Fair CLR 16.3 -2.4 28% 76.28 0.0
03 14:35 W 15 16.09 Fair CLR 16.1 -2.4 28% 76.3 0.0
03 14:15 W 20 G 28 16.09 Fair CLR 16.1 -1.6 30% 76.3 0.0
03 13:55 NW 13 G 26 16.09 Fair CLR 15.4 -2.6 15.8 10.1 29% 76.3 0.0
03 13:35 NW 19 G 33 16.09 Fair CLR 14.9 -3 29% 76.33 0.0
03 13:15 NW 13 G 30 16.09 Fair CLR 15 -2.8 29% 76.33 0.0
03 12:55 W 9 G 28 16.09 Fair CLR 14.9 -2.8 30% 76.35 0.0
03 12:35 NW 20 G 30 16.09 Fair CLR 14.5 -2.9 30% 76.35 0.0
03 12:15 W 24 G 35 16.09 Fair CLR 14.7 -2.4 31% 76.38 0.0
03 11:55 NW 20 G 30 16.09 Fair CLR 14.2 -3.8 29% 76.38 0.0
03 11:35 NW 19 G 28 16.09 Fair CLR 14.2 -3.4 30% 76.38 0.0
03 11:15 NW 20 G 30 16.09 Fair CLR 13.6 -2.9 32% 76.38 0.0
03 10:55 NW 19 G 26 16.09 Fair CLR 13 -3.6 32% 76.38 0.0
03 10:35 NW 17 16.09 Fair CLR 12.9 -3.2 33% 76.38 0.0
03 10:15 NW 22 G 33 16.09 Fair CLR 12.6 -3.1 34% 76.38 0.0
03 09:55 NW 19 G 26 16.09 Fair CLR 12.2 -1.6 39% 76.35 0.0
03 09:35 N 19 G 28 16.09 Fair CLR 11.6 -1.9 39% 76.35 0.0
03 09:15 NW 20 G 30 16.09 Fair CLR 11.5 -1.4 41% 76.35 0.0
03 08:55 NW 19 16.09 Fair CLR 11.7 -0.3 44% 76.35 0.0
03 08:35 NW 17 16.09 Partly Cloudy SCT080 11.2 0 46% 76.3 0.0
03 08:15 NW 11 16.09 Mostly Cloudy BKN070 10.3 -0.1 49% 76.3 0.0
03 07:55 NW 9 16.09 Overcast OVC070 10.1 0 10.5 5.3 50% 76.28 0.0
03 07:35 NW 7 16.09 Overcast BKN070 OVC085 10.1 -0.6 48% 76.28 0.0
03 07:15 N 9 16.09 Overcast BKN080 OVC090 10 -0.6 48% 9 76.25 0.0
03 06:55 N 9 16.09 Overcast BKN070 OVC090 10 -1.1 46% 9 76.23 0.0
03 06:35 N 11 16.09 Overcast OVC070 10 -0.6 48% 9 76.17 0.0
03 06:15 N 15 16.09 Overcast BKN070 OVC090 9.9 1.3 55% 8 76.15 0.0
03 05:55 N 7 16.09 Overcast BKN070 OVC090 9.7 2.4 61% 9 76.12 0.0
03 05:35 NW 6 16.09 Overcast SCT070 OVC090 8.3 3.5 72% 76.1 0.0
03 05:15 NW 6 16.09 Overcast OVC090 8 3.7 75% 76.1 0.0
03 04:55 Calm 16.09 Overcast BKN080 OVC090 6 4 87% 76.07 0.0
03 04:35 Calm 16.09 Overcast SCT080 OVC090 5.3 3.5 88% 76.07 0.0
03 04:15 Calm 16.09 Partly Cloudy SCT090 6.5 3.6 82% 76.05 0.0
03 03:55 Calm 16.09 Partly Cloudy SCT090 6.5 4 84% 76.02 0.0
03 03:35 Calm 16.09 Overcast SCT075 OVC090 7.2 4.2 81% 76.02 0.0
03 03:15 Calm 16.09 Overcast OVC075 7.1 4.5 84% 76 0.0
03 02:55 Calm 16.09 Mostly Cloudy BKN075 BKN095 6.7 4.5 86% 76 0.0
03 02:35 Calm 16.09 Partly Cloudy SCT095 6.8 4.6 86% 75.97 0.0
03 02:15 Calm 16.09 Fair CLR 6.7 4.7 87% 75.97 0.0
03 01:55 Calm 16.09 Fair CLR 6.2 4.1 12.5 6.2 87% 75.97 0.0
03 01:35 NW 6 16.09 Fair CLR 7.7 4.7 82% 75.97 0.0
03 01:15 W 6 16.09 Fair CLR 7.8 4.6 80% 75.97 0.0
03 00:55 Calm 16.09 Fair CLR 8.2 4.8 79% 75.97 0.0
03 00:35 Calm 16.09 Fair CLR 9.1 4.5 73% 75.97 0.0
03 00:15 NW 6 16.09 Partly Cloudy SCT110 8.9 5 77% 75.97 0.0
02 23:55 Calm 16.09 Partly Cloudy SCT110 9.2 4.7 74% 75.97 0.0
02 23:35 Calm 16.09 Fair CLR 9.1 5.2 77% 75.97 0.0
02 23:15 Calm 16.09 Fair CLR 10 3.8 66% 75.97 0.0
02 22:55 Calm 16.09 Partly Cloudy SCT090 SCT120 9.7 4.6 71% 75.97 0.0
02 22:15 W 6 16.09 Mostly Cloudy BKN090 10 4.2 68% 75.97 0.0
02 21:55 Calm 16.09 Mostly Cloudy BKN100 10.1 4 66% 75.97 0.0
02 21:35 Calm 16.09 Overcast BKN090 OVC110 9.8 5.2 73% 75.97 0.0
02 21:15 Calm 16.09 Overcast OVC090 11.8 2.1 52% 75.92 0.0
02 20:55 Calm 16.09 Overcast SCT075 OVC100 12.1 0.4 45% 75.92 0.0
02 20:35 N 6 16.09 Overcast BKN100 OVC110 12.2 -0.8 41% 75.92 0.0
02 20:15 N 6 16.09 Overcast OVC100 12.4 -1.6 38% 75.9 0.0
02 19:55 N 7 16.09 Overcast OVC110 12.4 0.1 14.1 11.1 43% 75.9 0.0
02 19:35 N 7 16.09 Mostly Cloudy SCT080 BKN120 12.4 1.5 48% 75.87 0.0
02 19:15 N 9 16.09 Overcast SCT080 OVC110 12.5 2.2 50% 75.87 0.0
02 18:55 N 9 16.09 Overcast SCT080 OVC100 12.6 2.2 49% 75.87 0.0
02 18:35 N 9 16.09 Overcast SCT080 OVC090 13 0.3 42% 75.9 0.0
02 18:15 N 6 16.09 Overcast OVC090 13.3 3.3 51% 75.9 0.0
02 17:55 N 11 16.09 Overcast OVC090 13.5 3.6 51% 75.87 0.0
02 17:35 N 11 16.09 Overcast OVC100 13.6 4.1 53% 75.87 0.0
02 17:15 N 11 16.09 Overcast OVC100 14 3.6 50% 75.84 0.0
02 16:55 N 13 16.09 Overcast OVC100 13.9 3 48% 75.84 0.0
02 16:35 N 13 16.09 Overcast OVC100 14.1 3.7 50% 75.84 0.0
02 16:15 N 11 16.09 Overcast SCT046 SCT060 OVC100 14 3.5 49% 75.84 0.0
02 15:55 NE 13 16.09 Mostly Cloudy SCT047 SCT060 BKN090 13.8 3.1 49% 75.87 0.0
02 15:35 N 9 16.09 Overcast SCT037 SCT050 OVC090 12.8 4.8 59% 75.9 0.0
02 15:15 N 9 16.09 Overcast SCT031 SCT045 OVC090 12.5 4.6 59% 75.9 0.0
02 14:55 N 11 16.09 Overcast SCT046 BKN065 OVC080 12.6 5.2 61% 75.92 0.0
02 14:35 N 9 16.09 Light Rain SCT055 SCT070 OVC090 12.5 7.3 71% 75.95 0.0
02 14:15 N 7 16.09 Light Rain SCT080 OVC090 11.5 8.3 81% 75.97 0.0
02 13:55 Calm 16.09 Light Rain OVC090 11.1 7.3 14.1 10.8 78% 76.02 0.0 0.05 0.1
02 13:35 Calm 16.09 Light Rain OVC090 11 6.9 76% 76.02 0.0 0.03
02 13:15 N 9 16.09 Light Rain OVC090 10.9 7.2 78% 76.02 0.0 0.03
02 12:55 N 11 16.09 Light Rain OVC090 11.5 7.8 78% 76.02 0.0 0.03
02 12:35 N 7 16.09 Light Rain OVC090 11.5 7.4 76% 76.02 0.0 0.03
02 12:15 N 11 G 28 16.09 Light Rain SCT075 OVC090 12 7 72% 76.05 0.0
02 11:55 N 11 16.09 Light Rain SCT034 SCT065 OVC090 12.5 8.7 78% 76.05 0.0 0.03
02 11:35 N 11 16.09 Light Rain SCT070 OVC090 12.3 9 80% 76.05 0.0 0.03
02 11:15 N 11 16.09 Light Rain OVC090 13 8.4 74% 76.02 0.0
02 10:55 N 11 16.09 Light Rain OVC100 13.7 7 64% 76.02 0.0
02 10:35 N 19 G 30 16.09 Light Drizzle BKN090 OVC110 14 7.3 64% 75.97 0.0
02 10:15 N 13 16.09 Light Rain SCT038 SCT080 OVC090 14.1 8.8 71% 75.97 0.0
02 09:55 N 7 16.09 Light Rain SCT034 BKN090 OVC110 13.5 9.6 77% 75.95 0.0
02 09:35 N 6 16.09 Light Rain OVC090 12.9 9.6 81% 75.95 0.0
02 09:15 N 11 16.09 Light Rain OVC100 12.6 9.8 83% 75.92 0.0
02 08:55 Calm 16.09 Light Rain OVC100 12.5 9.7 83% 75.95 0.0
02 08:35 N 6 16.09 Light Rain OVC100 12.5 9.9 84% 75.97 0.0
02 08:15 N 6 16.09 Drizzle OVC100 12.2 10 87% 75.97 0.0
02 07:55 Calm 16.09 Overcast SCT065 OVC100 12 9.6 12 10.2 85% 75.97 0.0
02 07:35 Calm 16.09 Overcast OVC100 11.8 9.4 85% 75.97 0.0
02 07:15 Calm 16.09 Overcast BKN090 OVC110 11.2 9.1 87% 76 0.0
02 06:55 Calm 16.09 Overcast BKN045 OVC100 10.8 9 89% 76 0.0
02 06:35 Calm 16.09 Overcast OVC043 10.7 9 89% 75.97 0.0
02 06:15 Calm 16.09 Overcast OVC041 10.7 9 89% 75.95 0.0
02 05:55 Calm 16.09 Overcast BKN034 OVC039 11.3 8.5 83% 75.92 0.0
02 05:35 Calm 16.09 Overcast OVC034 10.5 8.6 88% 75.92 0.0
02 05:15 Calm 16.09 Mostly Cloudy BKN034 10.6 8.5 87% 75.92 0.0
02 04:55 Calm 16.09 Partly Cloudy SCT026 10.5 8.5 88% 75.9 0.0
02 04:35 Calm 16.09 Fair CLR 10.3 8.5 89% 75.9 0.0
02 04:15 Calm 16.09 Fair CLR 10.6 8.3 86% 75.9 0.0
02 03:55 Calm 16.09 Partly Cloudy SCT028 11 8.2 83% 75.9 0.0
02 03:35 Calm 16.09 Partly Cloudy SCT028 10.3 8.4 88% 75.9 0.0
02 03:15 Calm 16.09 Mostly Cloudy BKN028 BKN035 BKN046 10.5 8.1 85% 75.9 0.0
02 02:55 Calm 16.09 Overcast BKN028 BKN034 OVC046 10.5 8.3 86% 75.9 0.0
02 02:35 Calm 16.09 Partly Cloudy SCT032 10.6 8.2 85% 75.92 0.0
02 02:15 Calm 16.09 Partly Cloudy SCT032 10.9 8.1 83% 75.95 0.0
02 01:55 Calm 16.09 Partly Cloudy SCT036 10.7 8.1 13.5 10.7 84% 75.97 0.0
02 01:35 Calm 16.09 Mostly Cloudy BKN034 BKN046 BKN055 11.1 8 81% 75.97 0.0
02 01:15 Calm 16.09 Mostly Cloudy BKN034 BKN044 11 8.1 82% 76 0.0
02 00:55 Calm 16.09 Mostly Cloudy BKN036 BKN044 11.7 7.8 77% 76 0.0
02 00:35 Calm 16.09 Overcast OVC036 11.9 7.1 73% 76.02 0.0
02 00:15 Calm 16.09 Overcast OVC036 12 7.2 73% 76.05 0.0
01 23:55 S 6 16.09 Overcast OVC036 11.8 7.1 73% 76.07 0.0
01 23:35 Calm 16.09 Mostly Cloudy BKN038 11.6 7.1 74% 76.05 0.0
01 23:15 S 7 16.09 Partly Cloudy SCT040 11.6 7.1 74% 76.02 0.0
01 22:55 SE 6 16.09 Partly Cloudy SCT042 11.7 7.1 74% 76.05 0.0
01 22:35 S 7 16.09 Partly Cloudy SCT039 11.8 7.1 73% 76.07 0.0
01 22:15 S 6 16.09 Partly Cloudy SCT041 SCT100 12 7.1 72% 76.07 0.0
01 21:55 S 7 16.09 Mostly Cloudy SCT039 BKN100 12.3 6.7 69% 76.07 0.0
01 21:35 S 13 16.09 Overcast BKN041 BKN047 OVC100 12.5 5.9 64% 76.07 0.0
01 21:15 S 7 16.09 Partly Cloudy SCT046 SCT050 SCT110 12.1 5.6 65% 76.07 0.0
01 20:55 S 9 16.09 Partly Cloudy SCT100 12.3 5.2 62% 76.02 0.0
01 20:35 Calm 16.09 Fair CLR 12.4 5.5 63% 76.02 0.0
01 20:15 S 7 16.09 Fair CLR 12.9 5.1 59% 76.02 0.0
01 19:55 SE 7 16.09 Fair CLR 13.5 5.1 19.5 13.5 57% 76 0.0
01 19:35 SE 11 16.09 Partly Cloudy SCT110 14.2 5.2 55% 76 0.0
Date Time (edt) Wind (kph) Vis. (km) Weather Sky Cond. Air Dwpt Max. Min. Relative Humidity Wind Chill (°C) Heat Index (°C) altimeter (cm) sea level (mb) 1 hr 3 hr 6 hr
6 hour
Temperature (ºC) Pressure Precipitation (cm)